Laconia, NH

1:31 PM EDT on May 21, 2018 (GMT -0400)
Laconia Municipal

Weather History for KLCI - March, 2013

Change the Weather History Date:

Thursday, March 21, 2013

  Actual Average Record
Temperature  
Mean Temperature 28 °F -  
Max Temperature 37 °F 43 °F 80 °F (2012)
Min Temperature 19 °F 22 °F 0 °F (1988)
Degree Days  
Heating Degree Days 37    
Moisture  
Dew Point 12 °F    
Average Humidity 53    
Maximum Humidity 74    
Minimum Humidity 33    
Precipitation  
Precipitation 0.00 in - - ()
Sea Level Pressure  
Sea Level Pressure 29.66 in    
Wind  
Wind Speed 8 mph (SW)    
Max Wind Speed 14 mph    
Max Gust Speed 18 mph    
Visibility 10 miles    
Events      
Averages and records for this station are not official NWS values.
T = Trace of Precipitation, MM = Missing Value Source: NWS Daily Summary

Daily Weather History Graph

Daily Weather History Graph

Search for Another Location

Airport or City:

Astronomy

Mar. 21, 2013 Rise Set
Actual Time 6:46 AM EDT 6:59 PM EDT
Civil Twilight 6:18 AM EDT 7:28 PM EDT
Nautical Twilight 5:44 AM EDT 8:01 PM EDT
Astronomical Twilight 5:10 AM EDT 8:36 PM EDT
Moon 1:17 PM EDT 3:15 AM EDT
Length of Visible Light 13h 09m
Length of Day
12h 12m
Waxing Gibbous, 68% of the Moon is Illuminated
Mar 21
Waxing Gibbous
Mar 27
Full
Apr 3
Last Quarter
Apr 10
New
Apr 18
First Quarter

Hourly Weather History & Observations

Time (EDT) Temp. Windchill Dew Point Humidity Pressure Visibility Wind Dir Wind Speed Gust Speed Precip Events Conditions
12:15 AM 28.4 °F 18.5 °F 14.0 °F 55% 29.72 in 10.0 mi SSW 11.5 mph 18.4 mph N/A   Clear
12:35 AM 26.6 °F 15.7 °F 14.0 °F 59% 29.72 in 10.0 mi SSW 12.7 mph - N/A   Clear
12:55 AM 26.6 °F 17.5 °F 14.0 °F 59% 29.72 in 10.0 mi SSW 9.2 mph - N/A   Clear
1:15 AM 26.6 °F 15.2 °F 14.0 °F 59% 29.72 in 10.0 mi SSW 13.8 mph - N/A   Clear
1:35 AM 26.6 °F 15.7 °F 12.2 °F 55% 29.73 in 10.0 mi SSW 12.7 mph - N/A   Clear
2:16 AM 24.8 °F 15.3 °F 12.2 °F 59% 29.72 in 10.0 mi SSW 9.2 mph - N/A   Clear
2:35 AM 24.8 °F 16.1 °F 12.2 °F 59% 29.72 in 10.0 mi SW 8.1 mph - N/A   Clear
2:55 AM 24.8 °F 15.3 °F 12.2 °F 59% 29.72 in 10.0 mi SW 9.2 mph - N/A   Clear
3:15 AM 23.0 °F 12.4 °F 12.2 °F 63% 29.72 in 10.0 mi SW 10.4 mph - N/A   Clear
3:35 AM 24.8 °F 16.1 °F 12.2 °F 59% 29.72 in 10.0 mi WSW 8.1 mph - N/A   Clear
3:55 AM 23.0 °F 13.9 °F 12.2 °F 63% 29.72 in 10.0 mi WSW 8.1 mph - N/A   Clear
4:15 AM 23.0 °F 13.1 °F 12.2 °F 63% 29.72 in 10.0 mi SW 9.2 mph - N/A   Clear
4:35 AM 23.0 °F 11.7 °F 12.2 °F 63% 29.72 in 10.0 mi SW 11.5 mph - N/A   Clear
4:55 AM 21.2 °F 9.5 °F 12.2 °F 68% 29.71 in 10.0 mi SW 11.5 mph - N/A   Clear
5:15 AM 23.0 °F 11.7 °F 12.2 °F 63% 29.71 in 10.0 mi SW 11.5 mph - N/A   Clear
5:35 AM 21.2 °F 11.7 °F 12.2 °F 68% 29.71 in 10.0 mi SSW 8.1 mph - N/A   Clear
5:55 AM 21.2 °F 12.6 °F 12.2 °F 68% 29.71 in 10.0 mi SW 6.9 mph - N/A   Clear
6:15 AM 21.2 °F 11.7 °F 10.4 °F 63% 29.72 in 10.0 mi SW 8.1 mph - N/A   Clear
6:35 AM 19.4 °F 9.5 °F 10.4 °F 68% 29.72 in 10.0 mi SW 8.1 mph - N/A   Clear
7:15 AM 19.4 °F 12.8 °F 12.2 °F 74% 29.73 in 10.0 mi SW 4.6 mph - N/A   Clear
7:35 AM 21.2 °F 14.9 °F 12.2 °F 68% 29.73 in 10.0 mi WSW 4.6 mph - N/A   Clear
7:55 AM 21.2 °F 13.6 °F 12.2 °F 68% 29.73 in 10.0 mi West 5.8 mph - N/A   Clear
8:15 AM 23.0 °F 17.0 °F 12.2 °F 63% 29.73 in 10.0 mi SW 4.6 mph - N/A   Clear
8:55 AM 24.8 °F 19.1 °F 12.2 °F 59% 29.74 in 10.0 mi South 4.6 mph - N/A   Clear
9:15 AM 26.6 °F 22.6 °F 14.0 °F 59% 29.74 in 10.0 mi WSW 3.5 mph - N/A   Clear
9:35 AM 26.6 °F 18.2 °F 12.2 °F 55% 29.73 in 10.0 mi WSW 8.1 mph - N/A   Clear
9:55 AM 26.6 °F 17.5 °F 14.0 °F 59% 29.73 in 10.0 mi SW 9.2 mph - N/A   Partly Cloudy
10:15 AM 26.6 °F 18.2 °F 15.8 °F 64% 29.73 in 10.0 mi SW 8.1 mph - N/A   Clear
10:35 AM 28.4 °F 23.3 °F 14.0 °F 55% 29.72 in 10.0 mi WSW 4.6 mph - N/A   Clear
10:55 AM 28.4 °F - 14.0 °F 55% 29.71 in 10.0 mi Calm Calm - N/A   Partly Cloudy
11:35 AM 30.2 °F 24.3 °F 15.8 °F 55% 29.69 in 10.0 mi SSW 5.8 mph - N/A   Clear
11:55 AM 30.2 °F 24.3 °F 15.8 °F 55% 29.68 in 0.5 mi SSW 5.8 mph - N/A   Unknown
12:35 PM 33.8 °F 30.8 °F 12.2 °F 41% 29.68 in 10.0 mi ESE 3.5 mph - N/A   Partly Cloudy
12:55 PM 33.8 °F 27.0 °F 14.0 °F 44% 29.67 in 10.0 mi NNE 8.1 mph - N/A   Scattered Clouds
1:15 PM 33.8 °F 27.7 °F 12.2 °F 41% 29.66 in 10.0 mi East 6.9 mph - N/A   Partly Cloudy
1:35 PM 33.8 °F 30.8 °F 12.2 °F 41% 29.65 in 10.0 mi ENE 3.5 mph - N/A   Mostly Cloudy
1:55 PM 33.8 °F 26.4 °F 12.2 °F 41% 29.64 in 10.0 mi NE 9.2 mph - N/A   Scattered Clouds
2:15 PM 33.8 °F 27.7 °F 12.2 °F 41% 29.63 in 10.0 mi ENE 6.9 mph - N/A   Clear
2:35 PM 33.8 °F 25.8 °F 12.2 °F 41% 29.62 in 10.0 mi ENE 10.4 mph - N/A   Clear
2:55 PM 35.6 °F 30.7 °F 10.4 °F 35% 29.61 in 10.0 mi ENE 5.8 mph - N/A   Clear
3:15 PM 35.6 °F 29.2 °F 12.2 °F 38% 29.60 in 10.0 mi NNE 8.1 mph - N/A   Clear
3:35 PM 35.6 °F 30.7 °F 12.2 °F 38% 29.60 in 10.0 mi NE 5.8 mph - N/A   Clear
3:55 PM 35.6 °F 28.6 °F 10.4 °F 35% 29.59 in 10.0 mi NE 9.2 mph - N/A   Clear
4:15 PM 35.6 °F 30.7 °F 10.4 °F 35% 29.59 in 10.0 mi NE 5.8 mph - N/A   Clear
4:35 PM 35.6 °F 31.7 °F 10.4 °F 35% 29.58 in 10.0 mi ENE 4.6 mph - N/A   Clear
4:55 PM 35.6 °F 32.8 °F 10.4 °F 35% 29.58 in 10.0 mi East 3.5 mph - N/A   Clear
5:15 PM 35.6 °F 29.9 °F 10.4 °F 35% 29.58 in 10.0 mi NNE 6.9 mph - N/A   Clear
5:35 PM 35.6 °F 30.7 °F 8.6 °F 33% 29.58 in 10.0 mi NNE 5.8 mph - N/A   Partly Cloudy
5:55 PM 35.6 °F 32.8 °F 8.6 °F 33% 29.58 in 10.0 mi NE 3.5 mph - N/A   Partly Cloudy
6:15 PM 37.4 °F 34.9 °F 10.4 °F 33% 29.58 in 10.0 mi North 3.5 mph - N/A   Partly Cloudy
6:35 PM 35.6 °F - 8.6 °F 33% 29.59 in 10.0 mi Calm Calm - N/A   Clear
6:55 PM 33.8 °F - 10.4 °F 38% 29.59 in 10.0 mi Calm Calm - N/A   Partly Cloudy
7:15 PM 30.2 °F - 12.2 °F 47% 29.59 in 10.0 mi Calm Calm - N/A   Scattered Clouds
7:35 PM 28.4 °F - 12.2 °F 51% 29.59 in 10.0 mi Calm Calm - N/A   Scattered Clouds
7:55 PM 28.4 °F - 14.0 °F 55% 29.59 in 10.0 mi Calm Calm - N/A   Clear
8:15 PM 28.4 °F - 14.0 °F 55% 29.59 in 10.0 mi Calm Calm - N/A   Clear
8:35 PM 26.6 °F - 12.2 °F 55% 29.59 in 10.0 mi Calm Calm - N/A   Clear
8:55 PM 26.6 °F - 12.2 °F 55% 29.59 in 10.0 mi Calm Calm - N/A   Clear
9:15 PM 24.8 °F - 14.0 °F 64% 29.59 in 10.0 mi Calm Calm - N/A   Clear
9:35 PM 24.8 °F 20.5 °F 14.0 °F 64% 29.59 in 10.0 mi SW 3.5 mph - N/A   Clear
9:55 PM 24.8 °F - 12.2 °F 59% 29.59 in 10.0 mi Calm Calm - N/A   Clear
10:15 PM 24.8 °F - 14.0 °F 64% 29.59 in 10.0 mi Calm Calm - N/A   Clear
10:35 PM 24.8 °F - 14.0 °F 64% 29.59 in 10.0 mi Calm Calm - N/A   Clear
10:55 PM 26.6 °F - 12.2 °F 55% 29.59 in 10.0 mi Calm Calm - N/A   Clear
11:15 PM 28.4 °F 24.6 °F 12.2 °F 51% 29.59 in 10.0 mi West 3.5 mph - N/A   Clear
11:55 PM 24.8 °F - 10.4 °F 54% 29.59 in 10.0 mi Calm Calm - N/A   Clear